»·PEaware :: VRD1754 KSFO-KSEA

VRD1754 :: KSFO-KSEA

FLIGHT INFORMATION

Flight Status: Arrived
Operator:
Virgin America
More flights by this operator :: More flights under this callsign
Pilot: Alex A. (3534)
Aircraft: AIRBUS A320
(A320)
More flights by this aircraft type
Origin: KSFO San Francisco Intl
United States
Destination: KSEA Seattle-Tacoma Intl
United States
More flights between these airports :: More routes between these airports
Route: +TRUKN2 GRTFL LMT HAWKZ6
File this flight plan on PilotEdge
Remarks: plz speek slowly
Altitude:
(Current/Filed)
36,000ft
Speed:
(Current/Filed)
210kts
Departed: 03-Jan-18 11:46 AM
Arrived: 03-Jan-18 01:14 PM
Distance/Time
Traveled:
589nm/1:28
Distance/Time
To Go:
Arrived

Flight Plot

Page will automatically refresh every two minutes.

Flight plan parsing failed; only flown route is shown


Map Options




Map Legend


Flown Route
Filed Route
Departure Airport
Arrival Airport
Navaid (VOR, NDB)
Fix

Horizontal Profiles

Position Reports

Time Latitude Longitude Heading Altitude Ground
Speed
03-Jan-18 10:37 37.618557 -122.387560 153 27ft 0kts
03-Jan-18 10:38 37.618557 -122.387560 153 27ft 0kts
03-Jan-18 10:39 37.618557 -122.387560 153 27ft 0kts
03-Jan-18 10:40 37.618557 -122.387560 153 27ft 0kts
03-Jan-18 10:41 37.618557 -122.387560 153 27ft 0kts
03-Jan-18 10:42 37.618557 -122.387560 153 27ft 0kts
03-Jan-18 10:43 37.618557 -122.387560 153 27ft 0kts
03-Jan-18 10:44 37.618557 -122.387560 153 27ft 0kts
03-Jan-18 10:45 37.618557 -122.387560 153 27ft 0kts
03-Jan-18 10:46 37.618557 -122.387560 153 27ft 0kts
03-Jan-18 10:47 37.618557 -122.387560 153 27ft 0kts
03-Jan-18 10:48 37.618557 -122.387560 153 27ft 0kts
03-Jan-18 10:49 37.618557 -122.387560 153 27ft 0kts
03-Jan-18 10:50 37.618557 -122.387560 153 27ft 0kts
03-Jan-18 10:51 37.618557 -122.387560 153 27ft 0kts
03-Jan-18 10:52 37.618557 -122.387560 153 27ft 0kts
03-Jan-18 10:53 37.618557 -122.387560 153 27ft 0kts
03-Jan-18 10:54 37.618557 -122.387560 153 27ft 0kts
03-Jan-18 10:55 37.618557 -122.387560 153 27ft 0kts
03-Jan-18 10:56 37.618557 -122.387560 153 27ft 0kts
03-Jan-18 10:57 37.618557 -122.387560 153 27ft 0kts
03-Jan-18 10:58 37.618557 -122.387560 153 27ft 0kts
03-Jan-18 10:59 37.618557 -122.387560 153 27ft 0kts
03-Jan-18 11:00 37.618557 -122.387560 153 27ft 0kts
03-Jan-18 11:01 37.618557 -122.387560 153 27ft 0kts
03-Jan-18 11:02 37.618557 -122.387560 153 27ft 0kts
03-Jan-18 11:03 37.618557 -122.387560 153 27ft 0kts
03-Jan-18 11:04 37.618557 -122.387560 153 27ft 0kts
03-Jan-18 11:05 37.618557 -122.387560 153 27ft 0kts
03-Jan-18 11:06 37.618557 -122.387560 153 27ft 0kts
03-Jan-18 11:07 37.618557 -122.387560 153 27ft 0kts
03-Jan-18 11:08 37.618557 -122.387560 153 27ft 0kts
03-Jan-18 11:09 37.618557 -122.387560 153 27ft 0kts
03-Jan-18 11:10 37.618557 -122.387560 153 27ft 0kts
03-Jan-18 11:11 37.618557 -122.387560 153 27ft 0kts
03-Jan-18 11:12 37.618557 -122.387560 153 27ft 0kts
03-Jan-18 11:13 37.618557 -122.387560 153 27ft 0kts
03-Jan-18 11:14 37.618557 -122.387560 153 27ft 0kts
03-Jan-18 11:15 37.618557 -122.387560 153 27ft 0kts
03-Jan-18 11:16 37.618557 -122.387560 153 27ft 0kts
03-Jan-18 11:17 37.618557 -122.387560 153 27ft 0kts
03-Jan-18 11:18 37.618557 -122.387560 153 27ft 0kts
03-Jan-18 11:19 37.618557 -122.387560 153 27ft 0kts
03-Jan-18 11:20 37.618557 -122.387560 153 27ft 0kts
03-Jan-18 11:21 37.618557 -122.387560 153 27ft 0kts
03-Jan-18 11:22 37.618557 -122.387560 153 27ft 0kts
03-Jan-18 11:23 37.618557 -122.387560 153 27ft 0kts
03-Jan-18 11:24 37.618557 -122.387560 153 27ft 0kts
03-Jan-18 11:25 37.618557 -122.387560 153 27ft 0kts
03-Jan-18 11:26 37.618557 -122.387560 153 27ft 0kts
03-Jan-18 11:27 37.618557 -122.387560 153 27ft 0kts
03-Jan-18 11:28 37.618557 -122.387560 153 27ft 0kts
03-Jan-18 11:29 37.618557 -122.387560 153 27ft 0kts
03-Jan-18 11:30 37.618557 -122.387560 153 27ft 0kts
03-Jan-18 11:31 37.618557 -122.387560 153 27ft 0kts
03-Jan-18 11:32 37.618930 -122.387798 135 27ft 2kts
03-Jan-18 11:33 37.619035 -122.388530 63 27ft 2kts
03-Jan-18 11:34 37.618724 -122.388943 30 27ft 0kts
03-Jan-18 11:35 37.618724 -122.388943 30 27ft 0kts
03-Jan-18 11:36 37.618724 -122.388943 30 27ft 0kts
03-Jan-18 11:37 37.618724 -122.388942 30 27ft 0kts
03-Jan-18 11:38 37.618724 -122.388942 30 27ft 0kts
03-Jan-18 11:39 37.618941 -122.388985 340 27ft 6kts
03-Jan-18 11:40 37.619783 -122.390649 300 27ft 0kts
03-Jan-18 11:41 37.620347 -122.391969 313 27ft 9kts
03-Jan-18 11:42 37.622506 -122.390180 73 27ft 10kts
03-Jan-18 11:43 37.621716 -122.386870 118 27ft 10kts
03-Jan-18 11:44 37.620249 -122.383406 116 27ft 11kts
03-Jan-18 11:45 37.618416 -122.379765 148 27ft 12kts
03-Jan-18 11:46 37.614970 -122.380724 205 27ft 14kts
03-Jan-18 11:47 37.611694 -122.382903 208 27ft 8kts
03-Jan-18 11:48 37.609524 -122.383570 132 27ft 7kts
03-Jan-18 11:49 37.609406 -122.383381 120 27ft 0kts
03-Jan-18 11:50 37.609405 -122.383381 120 27ft 0kts
03-Jan-18 11:51 37.609452 -122.381935 34 27ft 18kts
03-Jan-18 11:52 37.637600 -122.363505 33 1170ft 163kts
03-Jan-18 11:53 37.661688 -122.316906 54 3444ft 176kts
03-Jan-18 11:54 37.696005 -122.256606 58 5097ft 245kts
03-Jan-18 11:55 37.754218 -122.213748 356 7511ft 293kts
03-Jan-18 11:56 37.838764 -122.217832 0 10471ft 313kts
03-Jan-18 11:57 37.934106 -122.220168 359 12155ft 371kts
03-Jan-18 11:58 38.037023 -122.222981 358 14451ft 391kts
03-Jan-18 11:59 38.147577 -122.225977 357 16744ft 405kts
03-Jan-18 12:00 38.261988 -122.228969 356 18788ft 418kts
03-Jan-18 12:01 38.376034 -122.228729 3 20169ft 431kts
03-Jan-18 12:02 38.496813 -122.213048 4 21907ft 443kts
03-Jan-18 12:03 38.621160 -122.197578 4 23436ft 456kts
03-Jan-18 12:04 38.745753 -122.181758 4 24869ft 465kts
03-Jan-18 12:05 38.876101 -122.165194 4 26261ft 474kts
03-Jan-18 12:06 39.008178 -122.148372 4 27525ft 482kts
03-Jan-18 12:07 39.139846 -122.131529 4 28711ft 488kts
03-Jan-18 12:08 39.275572 -122.114100 4 29836ft 493kts
03-Jan-18 12:09 39.412301 -122.096451 3 31066ft 493kts
03-Jan-18 12:10 39.546465 -122.079043 3 32157ft 495kts
03-Jan-18 12:11 39.683415 -122.061294 3 33192ft 496kts
03-Jan-18 12:12 39.821154 -122.043302 3 34142ft 497kts
03-Jan-18 12:13 39.955593 -122.025723 2 35018ft 496kts
03-Jan-18 12:14 40.092828 -122.007633 2 35770ft 496kts
03-Jan-18 12:15 40.230640 -121.989415 2 36162ft 496kts
03-Jan-18 12:16 40.364195 -121.971744 2 36157ft 494kts
03-Jan-18 12:17 40.501348 -121.953444 1 36163ft 494kts
03-Jan-18 12:18 40.637765 -121.935187 1 36191ft 493kts
03-Jan-18 12:19 40.770131 -121.917466 1 36206ft 490kts
03-Jan-18 12:20 40.905692 -121.899159 1 36217ft 487kts
03-Jan-18 12:21 41.040152 -121.880995 1 36207ft 485kts
03-Jan-18 12:22 41.171128 -121.863151 1 36209ft 482kts
03-Jan-18 12:23 41.304896 -121.844908 1 36168ft 482kts
03-Jan-18 12:24 41.437711 -121.826738 1 36164ft 480kts
03-Jan-18 12:25 41.560218 -121.809892 1 36164ft 478kts
03-Jan-18 12:26 41.692560 -121.791603 1 36171ft 478kts
03-Jan-18 12:27 41.825167 -121.773229 2 36231ft 477kts
03-Jan-18 12:28 41.953511 -121.755349 2 36273ft 478kts
03-Jan-18 12:29 42.085779 -121.736877 2 36275ft 478kts
03-Jan-18 12:30 42.216406 -121.740452 345 36261ft 467kts
03-Jan-18 12:31 42.341471 -121.770547 345 36212ft 468kts
03-Jan-18 12:32 42.469487 -121.799212 345 36227ft 466kts
03-Jan-18 12:33 42.597630 -121.828625 345 36218ft 466kts
03-Jan-18 12:34 42.722535 -121.857356 345 36220ft 465kts
03-Jan-18 12:35 42.850263 -121.886831 345 36213ft 464kts
03-Jan-18 12:36 42.976965 -121.916213 345 36227ft 463kts
03-Jan-18 12:37 43.100735 -121.945026 345 36232ft 462kts
03-Jan-18 12:38 43.227360 -121.974667 345 36211ft 462kts
03-Jan-18 12:39 43.354255 -122.004426 346 36237ft 461kts
03-Jan-18 12:40 43.477938 -122.033583 345 36196ft 462kts
03-Jan-18 12:41 43.604853 -122.063642 345 36247ft 462kts
03-Jan-18 12:42 43.731221 -122.093719 345 36274ft 461kts
03-Jan-18 12:43 43.855210 -122.123265 345 36274ft 460kts
03-Jan-18 12:44 43.981294 -122.153529 345 36275ft 460kts
03-Jan-18 12:45 44.107740 -122.183963 345 36266ft 460kts
03-Jan-18 12:46 44.230893 -122.213736 345 36255ft 460kts
03-Jan-18 12:47 44.356777 -122.244334 345 36229ft 460kts
03-Jan-18 12:48 44.482964 -122.275079 346 36231ft 459kts
03-Jan-18 12:49 44.605551 -122.305081 346 36220ft 459kts
03-Jan-18 12:50 44.730904 -122.335974 346 36223ft 458kts
03-Jan-18 12:51 44.856737 -122.367059 346 36229ft 457kts
03-Jan-18 12:52 44.979048 -122.397412 346 36239ft 457kts
03-Jan-18 12:53 45.104463 -122.428718 346 36251ft 456kts
03-Jan-18 12:54 45.228841 -122.459836 346 35227ft 455kts
03-Jan-18 12:55 45.350613 -122.490406 346 34260ft 456kts
03-Jan-18 12:56 45.475805 -122.522080 347 33268ft 456kts
03-Jan-18 12:57 45.600924 -122.553852 347 32277ft 458kts
03-Jan-18 12:58 45.723949 -122.585167 347 31306ft 457kts
03-Jan-18 12:59 45.848268 -122.616098 348 30314ft 450kts
03-Jan-18 13:00 45.970610 -122.646440 348 28781ft 442kts
03-Jan-18 13:01 46.087250 -122.675390 348 26611ft 426kts
03-Jan-18 13:02 46.203372 -122.698729 350 24144ft 417kts
03-Jan-18 13:03 46.317074 -122.721137 352 21842ft 407kts
03-Jan-18 13:04 46.425917 -122.725709 357 19555ft 398kts
03-Jan-18 13:05 46.533885 -122.729711 356 17497ft 378kts
03-Jan-18 13:06 46.637265 -122.733411 356 15478ft 363kts
03-Jan-18 13:07 46.734918 -122.736963 356 13615ft 358kts
03-Jan-18 13:08 46.821400 -122.698132 39 12291ft 332kts
03-Jan-18 13:09 46.887680 -122.608311 42 10949ft 305kts
03-Jan-18 13:10 46.946139 -122.523674 46 9261ft 301kts
03-Jan-18 13:11 47.007987 -122.445804 30 7768ft 281kts
03-Jan-18 13:12 47.073654 -122.391948 30 5999ft 252kts
03-Jan-18 13:13 47.127663 -122.347598 23 5660ft 207kts
03-Jan-18 13:14 47.181149 -122.322250 20 4957ft 200kts
03-Jan-18 13:15 47.236356 -122.312960 1 4628ft 201kts
03-Jan-18 13:16 47.290006 -122.312499 1 3590ft 197kts
03-Jan-18 13:17 47.344203 -122.312053 1 2475ft 189kts
03-Jan-18 13:18 47.391189 -122.311631 0 1477ft 144kts
03-Jan-18 13:19 47.427093 -122.311143 358 701ft 127kts
03-Jan-18 13:20 47.452559 -122.311032 13 447ft 14kts
03-Jan-18 13:21 47.453952 -122.309568 108 447ft 11kts
03-Jan-18 13:22 47.452147 -122.306842 133 447ft 1kts
03-Jan-18 13:23 47.450818 -122.306295 180 447ft 12kts
03-Jan-18 13:24 47.446652 -122.306306 180 447ft 17kts
03-Jan-18 13:25 47.441175 -122.306394 177 447ft 21kts
03-Jan-18 13:26 47.439945 -122.303484 80 447ft 10kts
03-Jan-18 13:27 47.440926 -122.300391 45 447ft 0kts

Navigation Log

Ident Type
Flight plan parsing failed, navigation log unavailable